Royal Lakes, Illinois
Current Conditions -  °F | °C
As of 11:45 AM on Sunday 21 Dec 2014 (Local Time) from KALN Reporting Station
Overcast Overcast  
Wind Chill: 31°   Ceiling: 2100
Heat Index: 39°   Visibility: 7mi
Dew Point: 32°   Wind: 15mph
Humidity: 75%   Direction: 130°SE
Pressure: 30.15"   Gusts: NA
Location:  39.138°N, 90.0562°W
Report Text: KALN 211745Z 13013KT 7SM BKN021 OVC030 04/00 A3015
Loading
Personal Weather Stations






























Interactive Weather Map New forecast layout! Learn more

10-Day Weather Forecast

Advertisements
Track Severe Weather on mobile